createdAt,value
2018-12-14T00:00:20.569Z,98210.89
2018-12-14T00:03:23.889Z,98217.37
2018-12-14T00:06:27.224Z,98210.24
2018-12-14T00:09:30.440Z,98211.81
2018-12-14T00:12:33.959Z,98211.22
2018-12-14T00:15:37.322Z,98210.36
2018-12-14T00:18:40.541Z,98207.66
2018-12-14T00:21:43.957Z,98213.16
2018-12-14T00:24:47.319Z,98207.58
2018-12-14T00:27:50.982Z,98213.25
2018-12-14T00:30:54.236Z,98213.13
2018-12-14T00:33:57.496Z,98219.97
2018-12-14T00:37:00.762Z,98212.08
2018-12-14T00:40:04.722Z,98214.38
2018-12-14T00:43:08.019Z,98219.66
2018-12-14T00:46:11.316Z,98226.04
2018-12-14T00:49:14.524Z,98221.81
2018-12-14T00:52:17.810Z,98233.72
2018-12-14T00:55:21.048Z,98229.76
2018-12-14T00:58:24.364Z,98239.52
2018-12-14T01:01:27.689Z,98235.93
2018-12-14T01:04:30.924Z,98237.34
2018-12-14T01:07:34.157Z,98240.70
2018-12-14T01:10:37.496Z,98235.88
2018-12-14T01:13:40.726Z,98235.90
2018-12-14T01:16:43.972Z,98238.63
2018-12-14T01:19:47.276Z,98242.86
2018-12-14T01:22:50.481Z,98242.86
2018-12-14T01:25:53.942Z,98241.54
2018-12-14T01:28:57.270Z,98238.06
2018-12-14T01:32:00.483Z,98240.22
2018-12-14T01:35:03.975Z,98258.39
2018-12-14T01:38:07.266Z,98257.67
2018-12-14T01:41:10.502Z,98262.13
2018-12-14T01:44:13.756Z,98255.65
2018-12-14T01:47:17.066Z,98255.68
2018-12-14T01:50:20.572Z,98255.39
2018-12-14T01:53:23.904Z,98253.94
2018-12-14T01:56:27.151Z,98260.55
2018-12-14T01:59:30.364Z,98252.00
2018-12-14T02:02:33.592Z,98256.80
2018-12-14T02:05:36.835Z,98252.12
2018-12-14T02:08:40.045Z,98248.52
2018-12-14T02:11:43.330Z,98240.72
2018-12-14T02:14:46.800Z,98239.25
2018-12-14T02:17:50.022Z,98243.83
2018-12-14T02:20:53.326Z,98244.33
2018-12-14T02:23:56.582Z,98237.31
2018-12-14T02:26:59.918Z,98240.45
2018-12-14T02:30:16.823Z,98249.31
2018-12-14T02:33:20.165Z,98246.63
2018-12-14T02:36:23.480Z,98245.64
2018-12-14T02:39:26.726Z,98244.17
2018-12-14T02:42:30.125Z,98251.97
2018-12-14T02:45:33.424Z,98243.79
2018-12-14T02:48:36.654Z,98244.06
2018-12-14T02:51:39.892Z,98245.28
2018-12-14T02:54:43.245Z,98247.73
2018-12-14T02:57:46.590Z,98238.50
2018-12-14T03:00:50.034Z,98241.02
2018-12-14T03:03:53.304Z,98245.55
2018-12-14T03:06:56.532Z,98241.52
2018-12-14T03:09:59.900Z,98241.64
2018-12-14T03:13:03.112Z,98242.97
2018-12-14T03:16:06.425Z,98246.00
2018-12-14T03:19:09.677Z,98250.03
2018-12-14T03:22:14.304Z,98250.64
2018-12-14T03:25:17.532Z,98242.04
2018-12-14T03:28:20.808Z,98240.30
2018-12-14T03:31:24.110Z,98236.72
2018-12-14T03:34:27.492Z,98243.88
2018-12-14T03:37:30.696Z,98251.34
2018-12-14T03:40:33.958Z,98239.81
2018-12-14T03:43:37.436Z,98246.53
2018-12-14T03:46:41.001Z,98250.97
2018-12-14T03:49:44.214Z,98250.59
2018-12-14T03:52:47.890Z,98255.68
2018-12-14T03:55:51.101Z,98261.08
2018-12-14T03:58:54.503Z,98262.20
2018-12-14T04:01:57.897Z,98268.31
2018-12-14T04:05:01.115Z,98267.05
2018-12-14T04:08:04.388Z,98265.07
2018-12-14T04:11:07.604Z,98268.25
2018-12-14T04:14:10.985Z,98267.76
2018-12-14T04:17:14.234Z,98265.22
2018-12-14T04:20:17.513Z,98266.54
2018-12-14T04:23:20.746Z,98265.78
2018-12-14T04:26:23.979Z,98268.30
2018-12-14T04:29:27.263Z,98269.14
2018-12-14T04:32:30.486Z,98270.73
2018-12-14T04:35:33.743Z,98272.16
2018-12-14T04:38:37.055Z,98266.30
2018-12-14T04:41:40.453Z,98266.42
2018-12-14T04:44:43.661Z,98260.78
2018-12-14T04:47:46.947Z,98271.59
2018-12-14T04:50:50.162Z,98265.45
2018-12-14T04:53:53.437Z,98272.03
2018-12-14T04:56:56.834Z,98272.42
2018-12-14T05:00:00.179Z,98269.63
2018-12-14T05:03:03.526Z,98276.82
2018-12-14T05:06:06.904Z,98274.47
2018-12-14T05:09:10.212Z,98281.30
2018-12-14T05:12:13.529Z,98282.47
2018-12-14T05:15:16.931Z,98279.96
2018-12-14T05:18:20.140Z,98277.77
2018-12-14T05:21:23.522Z,98275.45
2018-12-14T05:24:26.817Z,98278.73
2018-12-14T05:27:30.060Z,98282.38
2018-12-14T05:30:33.304Z,98280.88
2018-12-14T05:33:36.913Z,98274.50
2018-12-14T05:36:40.215Z,98280.23
2018-12-14T05:39:43.536Z,98277.44
2018-12-14T05:42:46.807Z,98275.06
2018-12-14T05:45:50.098Z,98280.46
2018-12-14T05:48:53.384Z,98274.74
2018-12-14T05:51:57.573Z,98277.86
2018-12-14T05:55:00.936Z,98282.75
2018-12-14T05:58:04.221Z,98290.17
2018-12-14T06:01:07.472Z,98284.44
2018-12-14T06:04:11.011Z,98294.48
2018-12-14T06:07:14.308Z,98292.53
2018-12-14T06:10:17.559Z,98296.56
2018-12-14T06:13:20.893Z,98301.30
2018-12-14T06:16:24.133Z,98304.33
2018-12-14T06:19:27.602Z,98309.78
2018-12-14T06:22:30.896Z,98307.64
2018-12-14T06:25:34.166Z,98311.28
2018-12-14T06:28:37.388Z,98316.27
2018-12-14T06:31:40.684Z,98317.98
2018-12-14T06:34:43.983Z,98321.23
2018-12-14T06:37:47.212Z,98320.44
2018-12-14T06:40:50.476Z,98322.05
2018-12-14T06:43:53.762Z,98319.30
2018-12-14T06:46:57.067Z,98336.37
2018-12-14T06:50:00.290Z,98335.97
2018-12-14T06:53:03.881Z,98337.58
2018-12-14T06:56:07.217Z,98335.87
2018-12-14T06:59:10.468Z,98336.78
2018-12-14T07:02:13.770Z,98332.02
2018-12-14T07:05:17.018Z,98330.06
2018-12-14T07:08:20.357Z,98336.16
2018-12-14T07:11:23.650Z,98343.97
2018-12-14T07:14:26.948Z,98347.21
2018-12-14T07:17:30.165Z,98350.23
2018-12-14T07:20:33.540Z,98359.38
2018-12-14T07:23:36.758Z,98358.86
2018-12-14T07:26:40.037Z,98366.59
2018-12-14T07:29:43.370Z,98362.24
2018-12-14T07:32:46.592Z,98369.23
2018-12-14T07:35:49.812Z,98376.31
2018-12-14T07:38:53.119Z,98380.89
2018-12-14T07:41:56.418Z,98379.78
2018-12-14T07:44:59.744Z,98384.95
2018-12-14T07:48:03.054Z,98386.77
2018-12-14T07:51:06.308Z,98393.16
2018-12-14T07:54:09.607Z,98393.77
2018-12-14T07:57:12.902Z,98394.98
2018-12-14T08:00:16.199Z,98403.61
2018-12-14T08:03:19.497Z,98408.99
2018-12-14T08:06:22.765Z,98405.04
2018-12-14T08:09:26.050Z,98413.66
2018-12-14T08:12:29.301Z,98413.84
2018-12-14T08:15:32.810Z,98410.83
2018-12-14T08:18:36.082Z,98419.34
2018-12-14T08:21:39.296Z,98419.12
2018-12-14T08:24:42.576Z,98425.11
2018-12-14T08:27:45.820Z,98422.67
2018-12-14T08:30:49.068Z,98425.73
2018-12-14T08:33:52.296Z,98424.82
2018-12-14T08:36:55.560Z,98425.02
2018-12-14T08:39:58.781Z,98420.44
2018-12-14T08:43:02.156Z,98418.22
2018-12-14T08:46:05.388Z,98420.97
2018-12-14T08:49:08.612Z,98424.91
2018-12-14T08:52:11.893Z,98430.20
2018-12-14T08:55:15.214Z,98437.80
2018-12-14T08:58:18.436Z,98441.84
2018-12-14T09:01:21.671Z,98454.11
2018-12-14T09:04:24.897Z,98455.66
2018-12-14T09:07:28.225Z,98466.08
2018-12-14T09:10:31.523Z,98465.29
2018-12-14T09:13:34.857Z,98468.64
2018-12-14T09:16:38.216Z,98474.23
2018-12-14T09:19:41.515Z,98479.11
2018-12-14T09:22:44.777Z,98482.95
2018-12-14T09:25:48.042Z,98483.34
2018-12-14T09:28:51.718Z,98484.16
2018-12-14T09:31:55.012Z,98485.38
2018-12-14T09:34:58.363Z,98484.31
2018-12-14T09:38:01.608Z,98486.95
2018-12-14T09:41:04.845Z,98488.41
2018-12-14T09:44:08.201Z,98489.23
2018-12-14T09:47:11.421Z,98494.02
2018-12-14T09:50:14.712Z,98495.66
2018-12-14T09:53:18.092Z,98495.73
2018-12-14T09:56:21.320Z,98492.28
2018-12-14T09:59:24.581Z,98497.55
2018-12-14T10:02:27.901Z,98493.98
2018-12-14T10:05:31.178Z,98496.52
2018-12-14T10:08:34.413Z,98495.52
2018-12-14T10:11:37.775Z,98498.16
2018-12-14T10:14:41.178Z,98494.41
2018-12-14T10:17:44.487Z,98495.44
2018-12-14T10:20:47.805Z,98501.61
2018-12-14T10:23:51.156Z,98500.80
2018-12-14T10:26:54.358Z,98501.82
2018-12-14T10:29:57.657Z,98505.90
2018-12-14T10:33:00.893Z,98506.60
2018-12-14T10:36:04.251Z,98507.30
2018-12-14T10:39:07.550Z,98512.58
2018-12-14T10:42:10.884Z,98518.05
2018-12-14T10:45:14.260Z,98516.52
2018-12-14T10:48:17.542Z,98514.61
2018-12-14T10:51:20.748Z,98512.00
2018-12-14T10:54:24.135Z,98505.80
2018-12-14T10:57:27.347Z,98507.82
2018-12-14T11:00:36.210Z,98513.91
2018-12-14T11:03:39.753Z,98513.91
2018-12-14T11:06:43.058Z,98514.01
2018-12-14T11:09:46.292Z,98512.45
2018-12-14T11:12:49.749Z,98516.30
2018-12-14T11:15:52.976Z,98516.61
2018-12-14T11:18:56.246Z,98508.94
2018-12-14T11:21:59.452Z,98514.12
2018-12-14T11:25:02.742Z,98510.16
2018-12-14T11:28:06.038Z,98514.63
2018-12-14T11:31:09.248Z,98510.88
2018-12-14T11:34:13.336Z,98505.90
2018-12-14T11:37:16.645Z,98505.38
2018-12-14T11:40:19.852Z,98504.47
2018-12-14T11:43:23.136Z,98502.75
2018-12-14T11:46:26.420Z,98498.67
2018-12-14T11:49:29.681Z,98498.48
2018-12-14T11:52:32.906Z,98502.22
2018-12-14T11:55:36.223Z,98493.92
2018-12-14T11:58:39.563Z,98496.65
2018-12-14T12:01:42.825Z,98501.04
2018-12-14T12:04:46.110Z,98500.21
2018-12-14T12:07:49.718Z,98487.51
2018-12-14T12:10:53.120Z,98480.00
2018-12-14T12:13:56.328Z,98493.83
2018-12-14T12:16:59.629Z,98479.30
2018-12-14T12:20:03.900Z,98483.59
2018-12-14T12:23:07.136Z,98482.84
2018-12-14T12:26:10.421Z,98484.47
2018-12-14T12:29:13.721Z,98483.58
2018-12-14T12:32:16.928Z,98485.27
2018-12-14T12:35:20.213Z,98493.80
2018-12-14T12:38:23.524Z,98492.36
2018-12-14T12:41:26.746Z,98481.50
2018-12-14T12:44:33.521Z,98493.81
2018-12-14T12:47:35.196Z,98489.74
2018-12-14T12:50:38.425Z,98491.48
2018-12-14T12:53:41.657Z,98490.27
2018-12-14T12:56:44.928Z,98489.95
2018-12-14T12:59:48.227Z,98493.60
2018-12-14T13:02:51.525Z,98500.09
2018-12-14T13:05:54.827Z,98504.33
2018-12-14T13:08:58.140Z,98500.37
2018-12-14T13:12:01.415Z,98496.95
2018-12-14T13:15:06.200Z,98497.26
2018-12-14T13:18:09.453Z,98498.69
2018-12-14T13:21:12.743Z,98494.92
2018-12-14T13:24:16.040Z,98496.16
2018-12-14T13:27:20.427Z,98503.25
2018-12-14T13:30:23.861Z,98505.91
2018-12-14T13:33:27.669Z,98510.56
2018-12-14T13:36:30.890Z,98508.13
2018-12-14T13:39:34.162Z,98515.35
2018-12-14T13:42:37.381Z,98511.57
2018-12-14T13:45:40.652Z,98510.75
2018-12-14T13:48:44.052Z,98510.47
2018-12-14T13:51:47.340Z,98514.33
2018-12-14T13:54:50.647Z,98520.20
2018-12-14T13:57:53.880Z,98515.85
2018-12-14T14:00:57.236Z,98518.77
2018-12-14T14:04:00.458Z,98528.42
2018-12-14T14:07:03.714Z,98530.97
2018-12-14T14:10:07.389Z,98537.56
2018-12-14T14:13:10.634Z,98539.30
2018-12-14T14:16:13.857Z,98545.28
2018-12-14T14:19:17.093Z,98554.72
2018-12-14T14:22:20.729Z,98555.25
2018-12-14T14:25:24.334Z,98561.13
2018-12-14T14:28:27.634Z,98564.88
2018-12-14T14:31:30.929Z,98567.40
2018-12-14T14:34:34.229Z,98573.20
2018-12-14T14:37:37.428Z,98577.38
2018-12-14T14:40:40.717Z,98579.70
2018-12-14T14:43:44.018Z,98586.10
2018-12-14T14:46:47.312Z,98587.59
2018-12-14T14:49:50.613Z,98589.73
2018-12-14T14:52:53.910Z,98585.97
2018-12-14T14:55:57.187Z,98591.06
2018-12-14T14:59:00.405Z,98595.33
2018-12-14T15:02:03.788Z,98600.80
2018-12-14T15:05:07.078Z,98590.75
2018-12-14T15:08:10.280Z,98600.28
2018-12-14T15:11:13.586Z,98614.36
2018-12-14T15:14:16.901Z,98616.64
2018-12-14T15:17:20.183Z,98618.28
2018-12-14T15:20:23.416Z,98621.16
2018-12-14T15:23:26.781Z,98614.94
2018-12-14T15:26:30.094Z,98618.02
2018-12-14T15:29:33.373Z,98624.14
2018-12-14T15:32:36.644Z,98626.11
2018-12-14T15:35:39.876Z,98630.69
2018-12-14T15:38:43.125Z,98629.72
2018-12-14T15:41:46.385Z,98637.52
2018-12-14T15:44:49.611Z,98640.18
2018-12-14T15:47:52.951Z,98644.70
2018-12-14T15:50:56.179Z,98647.28
2018-12-14T15:53:59.423Z,98649.22
2018-12-14T15:57:02.739Z,98653.88
2018-12-14T16:00:07.928Z,98654.46
2018-12-14T16:03:11.152Z,98664.81
2018-12-14T16:06:14.404Z,98660.41
2018-12-14T16:09:17.649Z,98664.36
2018-12-14T16:12:20.887Z,98662.73
2018-12-14T16:15:24.117Z,98663.44
2018-12-14T16:18:27.439Z,98671.44
2018-12-14T16:21:30.855Z,98673.72
2018-12-14T16:24:34.255Z,98671.27
2018-12-14T16:27:37.952Z,98671.20
2018-12-14T16:30:41.433Z,98673.55
2018-12-14T16:33:44.720Z,98673.38
2018-12-14T16:36:47.983Z,98677.34
2018-12-14T16:39:51.322Z,98681.55
2018-12-14T16:42:54.541Z,98685.05
2018-12-14T16:45:57.849Z,98676.77
2018-12-14T16:49:01.234Z,98685.70
2018-12-14T16:52:04.514Z,98693.05
2018-12-14T16:55:07.930Z,98696.76
2018-12-14T16:58:11.241Z,98694.99
2018-12-14T17:01:14.641Z,98699.89
2018-12-14T17:04:17.936Z,98706.41
2018-12-14T17:07:21.235Z,98711.64
2018-12-14T17:10:24.531Z,98709.29
2018-12-14T17:13:28.729Z,98711.39
2018-12-14T17:16:32.048Z,98713.53
2018-12-14T17:19:35.264Z,98723.55
2018-12-14T17:22:38.647Z,98724.96
2018-12-14T17:25:41.981Z,98727.09
2018-12-14T17:28:45.337Z,98732.83
2018-12-14T17:31:48.635Z,98736.67
2018-12-14T17:34:51.841Z,98739.36
2018-12-14T17:37:55.100Z,98740.55
2018-12-14T17:40:58.409Z,98748.03
2018-12-14T17:44:01.621Z,98744.81
2018-12-14T17:47:04.916Z,98744.88
2018-12-14T17:50:08.508Z,98760.29
2018-12-14T17:53:11.817Z,98750.56
2018-12-14T17:56:15.028Z,98757.14
2018-12-14T17:59:18.262Z,98753.44
2018-12-14T18:02:21.484Z,98748.46
2018-12-14T18:05:24.801Z,98760.95
2018-12-14T18:08:28.008Z,98768.02
2018-12-14T18:11:31.484Z,98771.74
2018-12-14T18:14:34.797Z,98767.72
2018-12-14T18:17:38.012Z,98772.42
2018-12-14T18:20:41.286Z,98779.80
2018-12-14T18:23:44.521Z,98785.29
2018-12-14T18:26:47.778Z,98786.72
2018-12-14T18:29:51.031Z,98789.39
2018-12-14T18:32:54.266Z,98786.89
2018-12-14T18:35:57.612Z,98789.93
2018-12-14T18:39:00.965Z,98793.08
2018-12-14T18:42:04.241Z,98800.14
2018-12-14T18:45:07.666Z,98795.22
2018-12-14T18:48:10.943Z,98794.52
2018-12-14T18:51:14.156Z,98800.22
2018-12-14T18:54:17.532Z,98798.83
2018-12-14T18:57:20.852Z,98806.06
2018-12-14T19:00:24.080Z,98804.17
2018-12-14T19:03:27.344Z,98808.45
2018-12-14T19:06:30.577Z,98807.02
2018-12-14T19:09:34.142Z,98816.37
2018-12-14T19:12:37.441Z,98821.81
2018-12-14T19:15:40.739Z,98824.66
2018-12-14T19:18:44.036Z,98820.92
2018-12-14T19:21:47.437Z,98829.22
2018-12-14T19:24:50.666Z,98831.73
2018-12-14T19:27:53.954Z,98826.80
2018-12-14T19:30:57.225Z,98830.95
2018-12-14T19:34:00.521Z,98832.23
2018-12-14T19:37:03.772Z,98833.34
2018-12-14T19:40:09.482Z,98838.32
2018-12-14T19:43:12.740Z,98847.48
2018-12-14T19:46:16.011Z,98853.05
2018-12-14T19:49:19.222Z,98857.09
2018-12-14T19:52:22.491Z,98850.82
2018-12-14T19:55:25.720Z,98850.42
2018-12-14T19:58:28.947Z,98849.80
2018-12-14T20:01:32.250Z,98854.86
2018-12-14T20:04:35.481Z,98865.74
2018-12-14T20:07:38.781Z,98861.19
2018-12-14T20:10:42.149Z,98867.33
2018-12-14T20:13:45.386Z,98867.70
2018-12-14T20:16:48.837Z,98873.44
2018-12-14T20:19:52.069Z,98868.55
2018-12-14T20:22:55.305Z,98870.93
2018-12-14T20:25:58.619Z,98867.34
2018-12-14T20:29:01.848Z,98872.91
2018-12-14T20:32:05.113Z,98878.45
2018-12-14T20:35:08.707Z,98871.69
2018-12-14T20:38:12.016Z,98882.25
2018-12-14T20:41:15.385Z,98885.70
2018-12-14T20:44:18.748Z,98877.65
2018-12-14T20:47:22.118Z,98885.12
2018-12-14T20:50:25.354Z,98884.05
2018-12-14T20:53:28.601Z,98880.36
2018-12-14T20:56:32.000Z,98885.02
2018-12-14T20:59:35.211Z,98889.77
2018-12-14T21:02:38.493Z,98881.21
2018-12-14T21:05:41.696Z,98876.20
2018-12-14T21:08:45.087Z,98881.14
2018-12-14T21:11:48.353Z,98886.12
2018-12-14T21:14:51.579Z,98883.23
2018-12-14T21:17:54.817Z,98887.02
2018-12-14T21:20:58.172Z,98887.58
2018-12-14T21:24:01.413Z,98886.72
2018-12-14T21:27:04.767Z,98888.46
2018-12-14T21:30:10.249Z,98884.37
2018-12-14T21:33:13.483Z,98884.30
2018-12-14T21:36:16.773Z,98886.04
2018-12-14T21:39:20.106Z,98875.74
2018-12-14T21:42:23.319Z,98876.38
2018-12-14T21:45:26.680Z,98882.10
2018-12-14T21:48:29.889Z,98877.02
2018-12-14T21:51:33.220Z,98872.11
2018-12-14T21:54:36.526Z,98877.09
2018-12-14T21:57:40.267Z,98874.45
2018-12-14T22:00:43.594Z,98872.20
2018-12-14T22:03:46.801Z,98864.73
2018-12-14T22:06:50.029Z,98856.82
2018-12-14T22:09:53.261Z,98860.14
2018-12-14T22:12:56.683Z,98857.25
2018-12-14T22:15:59.948Z,98862.45
2018-12-14T22:19:03.308Z,98864.78
2018-12-14T22:22:06.675Z,98864.09
2018-12-14T22:25:09.952Z,98861.09
2018-12-14T22:28:13.186Z,98860.89
2018-12-14T22:31:16.451Z,98860.58
2018-12-14T22:34:19.724Z,98862.55
2018-12-14T22:37:22.953Z,98857.41
2018-12-14T22:40:26.209Z,98856.09
2018-12-14T22:43:29.447Z,98853.81
2018-12-14T22:46:32.710Z,98856.78
2018-12-14T22:49:35.926Z,98865.55
2018-12-14T22:52:39.155Z,98856.25
2018-12-14T22:55:42.389Z,98860.11
2018-12-14T22:58:45.822Z,98861.26
2018-12-14T23:01:49.062Z,98860.20
2018-12-14T23:04:52.305Z,98861.43
2018-12-14T23:07:55.525Z,98862.22
2018-12-14T23:10:58.816Z,98854.51
2018-12-14T23:14:02.020Z,98861.73
2018-12-14T23:17:05.296Z,98863.67
2018-12-14T23:20:08.652Z,98863.05
2018-12-14T23:23:11.994Z,98868.39
2018-12-14T23:26:15.219Z,98868.95
2018-12-14T23:29:18.449Z,98877.91
2018-12-14T23:32:21.851Z,98866.20
2018-12-14T23:35:25.189Z,98878.45
2018-12-14T23:38:28.399Z,98878.02
2018-12-14T23:41:31.681Z,98876.79
2018-12-14T23:44:34.889Z,98886.70
2018-12-14T23:47:38.171Z,98883.19
2018-12-14T23:50:41.417Z,98886.82
2018-12-14T23:53:44.729Z,98887.13
2018-12-14T23:56:47.967Z,98873.39
2018-12-14T23:59:51.292Z,98874.09
